createdAt,value
2022-09-11T00:00:08.566Z,71.19
2022-09-11T00:01:08.570Z,71.19
2022-09-11T00:02:08.638Z,71.19
2022-09-11T00:03:08.568Z,71.19
2022-09-11T00:04:08.546Z,71.19
2022-09-11T00:05:08.510Z,71.19
2022-09-11T00:06:08.501Z,71.19
2022-09-11T00:07:08.509Z,71.19
2022-09-11T00:08:08.479Z,71.19
2022-09-11T00:09:08.492Z,71.19
2022-09-11T00:10:08.460Z,71.19
2022-09-11T00:11:08.467Z,71.19
2022-09-11T00:12:08.461Z,71.19
2022-09-11T00:13:08.425Z,71.19
2022-09-11T00:14:08.417Z,71.19
2022-09-11T00:15:08.403Z,71.19
2022-09-11T00:16:08.460Z,71.19
2022-09-11T00:17:08.405Z,71.19
2022-09-11T00:18:08.371Z,71.19
2022-09-11T00:19:08.358Z,71.19
2022-09-11T00:20:08.393Z,71.19
2022-09-11T00:21:08.337Z,71.19
2022-09-11T00:22:08.331Z,71.19
2022-09-11T00:23:08.318Z,71.19
2022-09-11T00:24:08.308Z,71.19
2022-09-11T00:25:08.316Z,71.19
2022-09-11T00:26:08.284Z,71.19
2022-09-11T00:27:08.273Z,71.19
2022-09-11T00:28:08.266Z,71.19
2022-09-11T00:29:08.274Z,71.19
2022-09-11T00:30:08.242Z,71.19
2022-09-11T00:31:08.293Z,71.19
2022-09-11T00:32:08.248Z,71.19
2022-09-11T00:33:08.217Z,71.09
2022-09-11T00:34:08.197Z,71.09
2022-09-11T00:35:08.191Z,71.19
2022-09-11T00:36:08.202Z,71.19
2022-09-11T00:37:08.214Z,71.19
2022-09-11T00:38:08.157Z,71.19
2022-09-11T00:39:08.144Z,71.19
2022-09-11T00:40:08.220Z,71.19
2022-09-11T00:41:08.129Z,71.09
2022-09-11T00:42:08.111Z,71.19
2022-09-11T00:43:08.136Z,71.09
2022-09-11T00:44:08.120Z,71.09
2022-09-11T00:45:08.083Z,71.09
2022-09-11T00:46:08.127Z,71.09
2022-09-11T00:47:08.064Z,71.09
2022-09-11T00:48:08.049Z,71.19
2022-09-11T00:49:08.068Z,71.19
2022-09-11T00:50:08.028Z,71.19
2022-09-11T00:51:08.018Z,71.19
2022-09-11T00:52:08.027Z,71.09
2022-09-11T00:53:08.003Z,71.09
2022-09-11T00:54:08.014Z,71.09
2022-09-11T00:55:08.000Z,71.09
2022-09-11T00:56:07.963Z,71.09
2022-09-11T00:57:07.953Z,71.09
2022-09-11T00:58:07.940Z,71.09
2022-09-11T00:59:07.933Z,71.09
2022-09-11T01:00:07.950Z,71.09
2022-09-11T01:01:07.971Z,71.09
2022-09-11T01:02:07.955Z,71.09
2022-09-11T01:03:07.887Z,71.09
2022-09-11T01:04:07.879Z,71.09
2022-09-11T01:05:07.919Z,71.09
2022-09-11T01:06:07.855Z,71.09
2022-09-11T01:07:07.848Z,71.09
2022-09-11T01:08:07.855Z,71.09
2022-09-11T01:09:07.821Z,71.09
2022-09-11T01:10:07.810Z,71.09
2022-09-11T01:11:07.831Z,71.09
2022-09-11T01:12:07.838Z,71.09
2022-09-11T01:13:07.779Z,71.09
2022-09-11T01:14:07.771Z,71.09
2022-09-11T01:15:07.757Z,71.09
2022-09-11T01:16:07.823Z,71.09
2022-09-11T01:17:07.736Z,71.09
2022-09-11T01:18:07.757Z,71.09
2022-09-11T01:19:07.714Z,71.09
2022-09-11T01:20:07.707Z,71.09
2022-09-11T01:21:07.692Z,71.09
2022-09-11T01:22:07.691Z,71.09
2022-09-11T01:23:07.702Z,71.09
2022-09-11T01:24:07.683Z,71.09
2022-09-11T01:25:07.657Z,71.09
2022-09-11T01:26:07.642Z,71.09
2022-09-11T01:27:07.627Z,71.09
2022-09-11T01:28:07.650Z,71.09
2022-09-11T01:29:07.644Z,71.09
2022-09-11T01:30:11.478Z,71.09
2022-09-11T01:31:07.681Z,71.09
2022-09-11T01:32:07.577Z,71.09
2022-09-11T01:33:07.562Z,71.09
2022-09-11T01:34:07.588Z,71.09
2022-09-11T01:35:07.568Z,71.09
2022-09-11T01:36:07.531Z,71.09
2022-09-11T01:37:07.520Z,71.09
2022-09-11T01:38:07.511Z,71.09
2022-09-11T01:39:07.497Z,71.09
2022-09-11T01:40:07.603Z,71.09
2022-09-11T01:41:07.475Z,71.09
2022-09-11T01:42:07.466Z,71.09
2022-09-11T01:43:07.455Z,71.09
2022-09-11T01:44:07.444Z,71.09
2022-09-11T01:45:07.463Z,71.09
2022-09-11T01:46:07.508Z,71.09
2022-09-11T01:47:07.418Z,71.09
2022-09-11T01:48:07.408Z,71.09
2022-09-11T01:49:07.390Z,71.09
2022-09-11T01:50:07.411Z,71.09
2022-09-11T01:51:07.370Z,71.09
2022-09-11T01:52:07.360Z,71.09
2022-09-11T01:53:07.346Z,71.09
2022-09-11T01:54:07.337Z,71.09
2022-09-11T01:55:07.376Z,71.09
2022-09-11T01:56:07.343Z,71.09
2022-09-11T01:57:07.306Z,71.09
2022-09-11T01:58:07.302Z,71.09
2022-09-11T01:59:07.288Z,71.09
2022-09-11T02:00:07.275Z,71.09
2022-09-11T02:01:07.367Z,71.09
2022-09-11T02:02:07.334Z,71.09
2022-09-11T02:03:07.250Z,71.09
2022-09-11T02:04:07.248Z,71.09
2022-09-11T02:05:07.219Z,71.09
2022-09-11T02:06:07.257Z,71.09
2022-09-11T02:07:07.200Z,71.09
2022-09-11T02:08:07.187Z,71.09
2022-09-11T02:09:07.184Z,71.09
2022-09-11T02:10:07.169Z,71.09
2022-09-11T02:11:07.211Z,71.09
2022-09-11T02:12:07.169Z,71.09
2022-09-11T02:13:07.136Z,71.09
2022-09-11T02:14:07.130Z,71.09
2022-09-11T02:15:07.109Z,71.09
2022-09-11T02:16:07.250Z,71.09
2022-09-11T02:17:07.137Z,71.09
2022-09-11T02:18:07.081Z,71.09
2022-09-11T02:19:07.069Z,71.09
2022-09-11T02:20:07.057Z,71.09
2022-09-11T02:21:07.049Z,71.09
2022-09-11T02:22:07.066Z,71.09
2022-09-11T02:23:07.029Z,70.99
2022-09-11T02:24:07.017Z,71.09
2022-09-11T02:25:07.003Z,71.09
2022-09-11T02:26:06.993Z,71.09
2022-09-11T02:27:07.010Z,70.99
2022-09-11T02:28:06.992Z,70.99
2022-09-11T02:29:06.957Z,71.09
2022-09-11T02:30:06.948Z,70.99
2022-09-11T02:31:06.981Z,71.09
2022-09-11T02:32:06.960Z,70.99
2022-09-11T02:33:06.962Z,71.09
2022-09-11T02:34:06.907Z,71.09
2022-09-11T02:35:06.895Z,71.09
2022-09-11T02:36:06.883Z,71.09
2022-09-11T02:37:06.872Z,71.09
2022-09-11T02:38:06.864Z,71.09
2022-09-11T02:39:06.903Z,70.99
2022-09-11T02:40:06.924Z,70.99
2022-09-11T02:41:06.832Z,70.99
2022-09-11T02:42:06.822Z,71.09
2022-09-11T02:43:06.807Z,70.99
2022-09-11T02:44:06.826Z,70.99
2022-09-11T02:45:06.814Z,70.99
2022-09-11T02:46:06.777Z,71.09
2022-09-11T02:47:06.764Z,70.99
2022-09-11T02:48:06.760Z,71.09
2022-09-11T02:49:06.743Z,70.99
2022-09-11T02:50:06.765Z,70.99
2022-09-11T02:51:06.721Z,70.99
2022-09-11T02:52:06.713Z,70.99
2022-09-11T02:53:06.699Z,70.99
2022-09-11T02:54:06.689Z,70.99
2022-09-11T02:55:06.708Z,70.99
2022-09-11T02:56:06.671Z,70.99
2022-09-11T02:57:06.657Z,70.99
2022-09-11T02:58:06.648Z,70.99
2022-09-11T02:59:06.636Z,70.99
2022-09-11T03:00:06.678Z,70.99
2022-09-11T03:01:06.705Z,70.99
2022-09-11T03:02:06.792Z,70.99
2022-09-11T03:03:06.597Z,70.99
2022-09-11T03:04:06.586Z,70.99
2022-09-11T03:05:06.570Z,70.99
2022-09-11T03:06:06.566Z,70.99
2022-09-11T03:07:06.579Z,70.99
2022-09-11T03:08:06.538Z,70.99
2022-09-11T03:09:06.528Z,70.99
2022-09-11T03:10:06.516Z,70.99
2022-09-11T03:11:06.509Z,70.99
2022-09-11T03:12:06.527Z,70.99
2022-09-11T03:13:06.488Z,70.99
2022-09-11T03:14:06.473Z,70.99
2022-09-11T03:15:06.460Z,70.99
2022-09-11T03:16:06.527Z,70.99
2022-09-11T03:17:06.471Z,70.99
2022-09-11T03:18:06.433Z,70.99
2022-09-11T03:19:06.445Z,70.99
2022-09-11T03:20:06.408Z,70.99
2022-09-11T03:21:06.399Z,70.99
2022-09-11T03:22:06.388Z,70.99
2022-09-11T03:23:06.377Z,70.99
2022-09-11T03:24:06.399Z,70.99
2022-09-11T03:25:06.353Z,70.99
2022-09-11T03:26:06.348Z,70.99
2022-09-11T03:27:06.332Z,70.99
2022-09-11T03:28:06.323Z,70.99
2022-09-11T03:29:06.342Z,70.99
2022-09-11T03:30:06.330Z,70.99
2022-09-11T03:31:06.289Z,70.99
2022-09-11T03:32:06.300Z,70.99
2022-09-11T03:33:06.268Z,70.99
2022-09-11T03:34:06.257Z,70.99
2022-09-11T03:35:06.277Z,70.99
2022-09-11T03:36:06.243Z,70.99
2022-09-11T03:37:06.226Z,70.99
2022-09-11T03:38:06.215Z,70.99
2022-09-11T03:39:06.205Z,70.99
2022-09-11T03:40:06.295Z,70.99
2022-09-11T03:41:06.184Z,70.99
2022-09-11T03:42:06.198Z,70.99
2022-09-11T03:43:06.164Z,70.99
2022-09-11T03:44:06.149Z,70.99
2022-09-11T03:45:06.141Z,70.99
2022-09-11T03:46:06.180Z,70.99
2022-09-11T03:47:06.148Z,70.99
2022-09-11T03:48:06.155Z,70.99
2022-09-11T03:49:06.095Z,70.99
2022-09-11T03:50:06.083Z,70.99
2022-09-11T03:51:06.075Z,70.99
2022-09-11T03:52:06.062Z,70.99
2022-09-11T03:53:06.086Z,70.99
2022-09-11T03:54:06.069Z,70.99
2022-09-11T03:55:06.036Z,70.99
2022-09-11T03:56:06.019Z,70.99
2022-09-11T03:57:06.011Z,70.99
2022-09-11T03:58:06.002Z,70.99
2022-09-11T03:59:06.018Z,70.99
2022-09-11T04:00:05.976Z,70.99
2022-09-11T04:01:06.178Z,70.99
2022-09-11T04:02:06.037Z,70.99
2022-09-11T04:03:05.945Z,70.89
2022-09-11T04:04:06.015Z,70.89
2022-09-11T04:05:05.923Z,70.99
2022-09-11T04:06:05.913Z,70.99
2022-09-11T04:07:05.902Z,70.99
2022-09-11T04:08:05.890Z,70.99
2022-09-11T04:09:05.879Z,70.99
2022-09-11T04:10:05.898Z,70.99
2022-09-11T04:11:05.862Z,70.99
2022-09-11T04:12:05.846Z,70.99
2022-09-11T04:13:05.836Z,70.99
2022-09-11T04:14:05.824Z,70.89
2022-09-11T04:15:05.846Z,70.89
2022-09-11T04:16:05.872Z,70.89
2022-09-11T04:17:05.795Z,70.99
2022-09-11T04:18:05.797Z,70.89
2022-09-11T04:19:05.777Z,70.89
2022-09-11T04:20:05.814Z,70.99
2022-09-11T04:21:05.777Z,70.89
2022-09-11T04:22:05.739Z,70.89
2022-09-11T04:23:05.728Z,70.89
2022-09-11T04:24:05.719Z,70.89
2022-09-11T04:25:05.708Z,70.89
2022-09-11T04:26:05.727Z,70.89
2022-09-11T04:27:05.686Z,70.89
2022-09-11T04:28:05.673Z,70.89
2022-09-11T04:29:05.664Z,70.89
2022-09-11T04:30:05.652Z,70.89
2022-09-11T04:31:05.672Z,70.89
2022-09-11T04:32:05.660Z,70.89
2022-09-11T04:33:05.620Z,70.89
2022-09-11T04:34:05.608Z,70.89
2022-09-11T04:35:05.600Z,70.89
2022-09-11T04:36:05.608Z,70.89
2022-09-11T04:37:05.607Z,70.89
2022-09-11T04:38:05.566Z,70.89
2022-09-11T04:39:05.557Z,70.89
2022-09-11T04:40:05.643Z,70.89
2022-09-11T04:41:05.533Z,70.89
2022-09-11T04:42:05.552Z,70.89
2022-09-11T04:43:05.512Z,70.89
2022-09-11T04:44:05.862Z,70.89
2022-09-11T04:45:05.491Z,70.89
2022-09-11T04:46:05.550Z,70.89
2022-09-11T04:47:05.500Z,70.92
2022-09-11T04:48:05.488Z,70.89
2022-09-11T04:49:05.450Z,70.89
2022-09-11T04:50:05.438Z,70.89
2022-09-11T04:51:05.428Z,70.92
2022-09-11T04:52:05.437Z,70.89
2022-09-11T04:53:05.435Z,70.89
2022-09-11T04:54:05.422Z,70.92
2022-09-11T04:55:05.383Z,70.89
2022-09-11T04:56:05.374Z,70.89
2022-09-11T04:57:05.364Z,70.89
2022-09-11T04:58:05.353Z,70.89
2022-09-11T04:59:05.373Z,70.89
2022-09-11T05:00:05.330Z,70.89
2022-09-11T05:01:05.360Z,70.92
2022-09-11T05:02:05.348Z,70.92
2022-09-11T05:03:05.301Z,70.92
2022-09-11T05:04:05.318Z,70.89
2022-09-11T05:05:05.303Z,70.89
2022-09-11T05:06:05.265Z,70.92
2022-09-11T05:07:05.254Z,70.89
2022-09-11T05:08:05.265Z,70.89
2022-09-11T05:09:05.234Z,70.92
2022-09-11T05:10:05.253Z,70.92
2022-09-11T05:11:05.214Z,70.92
2022-09-11T05:12:05.205Z,70.92
2022-09-11T05:13:05.191Z,70.92
2022-09-11T05:14:05.182Z,70.89
2022-09-11T05:15:05.198Z,70.92
2022-09-11T05:16:05.228Z,70.92
2022-09-11T05:17:05.149Z,70.92
2022-09-11T05:18:05.135Z,70.92
2022-09-11T05:19:05.128Z,70.92
2022-09-11T05:20:08.708Z,70.92
2022-09-11T05:21:06.133Z,70.92
2022-09-11T05:22:05.093Z,70.92
2022-09-11T05:23:05.083Z,70.92
2022-09-11T05:24:05.096Z,70.92
2022-09-11T05:25:05.063Z,70.92
2022-09-11T05:26:05.080Z,70.89
2022-09-11T05:27:05.070Z,70.92
2022-09-11T05:28:05.029Z,70.92
2022-09-11T05:29:05.022Z,70.92
2022-09-11T05:30:05.007Z,70.92
2022-09-11T05:31:04.999Z,70.92
2022-09-11T05:32:05.016Z,70.89
2022-09-11T05:33:04.978Z,70.92
2022-09-11T05:34:04.963Z,70.92
2022-09-11T05:35:04.957Z,70.83
2022-09-11T05:36:04.948Z,70.83
2022-09-11T05:37:04.963Z,70.92
2022-09-11T05:38:04.920Z,70.92
2022-09-11T05:39:04.915Z,70.83
2022-09-11T05:40:05.005Z,70.83
2022-09-11T05:41:04.893Z,70.83
2022-09-11T05:42:04.911Z,70.83
2022-09-11T05:43:04.869Z,70.83
2022-09-11T05:44:04.857Z,70.83
2022-09-11T05:45:04.848Z,70.83
2022-09-11T05:46:04.885Z,70.83
2022-09-11T05:47:04.858Z,70.92
2022-09-11T05:48:04.814Z,70.79
2022-09-11T05:49:04.805Z,70.92
2022-09-11T05:50:04.819Z,70.79
2022-09-11T05:51:04.783Z,70.83
2022-09-11T05:52:04.770Z,70.83
2022-09-11T05:53:04.760Z,70.83
2022-09-11T05:54:04.749Z,70.83
2022-09-11T05:55:04.770Z,70.83
2022-09-11T05:56:04.778Z,70.83
2022-09-11T05:57:07.778Z,70.83
2022-09-11T05:58:04.706Z,70.83
2022-09-11T05:59:04.694Z,70.83
2022-09-11T06:00:04.714Z,70.83
2022-09-11T06:01:04.787Z,70.83
2022-09-11T06:02:04.762Z,70.83
2022-09-11T06:03:04.655Z,70.83
2022-09-11T06:04:04.641Z,70.83
2022-09-11T06:05:04.633Z,70.83
2022-09-11T06:06:04.621Z,70.83
2022-09-11T06:07:04.641Z,70.83
2022-09-11T06:08:04.599Z,70.83
2022-09-11T06:09:04.589Z,70.83
2022-09-11T06:10:04.575Z,70.83
2022-09-11T06:11:04.567Z,70.83
2022-09-11T06:12:04.607Z,70.83
2022-09-11T06:13:04.544Z,70.83
2022-09-11T06:14:04.532Z,70.83
2022-09-11T06:15:04.524Z,70.83
2022-09-11T06:16:04.511Z,70.83
2022-09-11T06:17:04.530Z,70.83
2022-09-11T06:18:04.489Z,70.83
2022-09-11T06:19:04.480Z,70.83
2022-09-11T06:20:04.499Z,70.83
2022-09-11T06:21:04.459Z,70.83
2022-09-11T06:22:04.446Z,70.83
2022-09-11T06:23:09.049Z,70.83
2022-09-11T06:24:04.425Z,70.83
2022-09-11T06:25:04.445Z,70.83
2022-09-11T06:26:04.403Z,70.83
2022-09-11T06:27:04.394Z,70.83
2022-09-11T06:28:04.403Z,70.83
2022-09-11T06:29:04.370Z,70.83
2022-09-11T06:30:04.415Z,70.83
2022-09-11T06:31:04.389Z,70.83
2022-09-11T06:32:04.336Z,70.83
2022-09-11T06:33:04.331Z,70.83
2022-09-11T06:34:04.316Z,70.83
2022-09-11T06:35:04.338Z,70.83
2022-09-11T06:36:04.296Z,70.83
2022-09-11T06:37:04.284Z,70.83
2022-09-11T06:38:04.273Z,70.83
2022-09-11T06:39:04.265Z,70.83
2022-09-11T06:40:04.343Z,70.83
2022-09-11T06:41:04.241Z,70.83
2022-09-11T06:42:04.233Z,70.83
2022-09-11T06:43:04.219Z,70.83
2022-09-11T06:44:04.232Z,70.72
2022-09-11T06:45:04.232Z,70.83
2022-09-11T06:46:04.311Z,70.83
2022-09-11T06:47:04.179Z,70.83
2022-09-11T06:48:04.166Z,70.83
2022-09-11T06:49:04.154Z,70.83
2022-09-11T06:50:04.172Z,70.83
2022-09-11T06:51:04.132Z,70.83
2022-09-11T06:52:04.170Z,70.83
2022-09-11T06:53:04.112Z,70.83
2022-09-11T06:54:04.100Z,70.83
2022-09-11T06:55:04.090Z,70.83
2022-09-11T06:56:04.079Z,70.83
2022-09-11T06:57:04.070Z,70.83
2022-09-11T06:58:04.091Z,70.72
2022-09-11T06:59:04.051Z,70.83
2022-09-11T07:00:04.059Z,70.83
2022-09-11T07:01:04.170Z,70.83
2022-09-11T07:02:04.174Z,70.83
2022-09-11T07:03:04.052Z,70.83
2022-09-11T07:04:03.995Z,70.83
2022-09-11T07:05:03.991Z,70.83
2022-09-11T07:06:03.972Z,70.72
2022-09-11T07:07:03.962Z,70.72
2022-09-11T07:08:03.987Z,70.83
2022-09-11T07:09:03.943Z,70.83
2022-09-11T07:10:03.959Z,70.83
2022-09-11T07:11:03.920Z,70.83
2022-09-11T07:12:03.908Z,70.83
2022-09-11T07:13:03.896Z,70.83
2022-09-11T07:14:03.886Z,70.83
2022-09-11T07:15:03.906Z,70.83
2022-09-11T07:16:03.890Z,70.72
2022-09-11T07:17:03.853Z,70.83
2022-09-11T07:18:03.846Z,70.83
2022-09-11T07:19:03.835Z,70.83
2022-09-11T07:20:03.855Z,70.83
2022-09-11T07:21:03.811Z,70.83
2022-09-11T07:22:03.829Z,70.83
2022-09-11T07:23:03.788Z,70.72
2022-09-11T07:24:03.781Z,70.72
2022-09-11T07:25:07.573Z,70.72
2022-09-11T07:26:03.755Z,70.72
2022-09-11T07:27:03.777Z,70.83
2022-09-11T07:28:03.734Z,70.83
2022-09-11T07:29:03.724Z,70.83
2022-09-11T07:30:03.715Z,70.83
2022-09-11T07:31:03.758Z,70.72
2022-09-11T07:32:03.752Z,70.83
2022-09-11T07:33:03.685Z,70.83
2022-09-11T07:34:03.669Z,70.72
2022-09-11T07:35:03.661Z,70.72
2022-09-11T07:36:03.653Z,70.72
2022-09-11T07:37:03.671Z,70.72
2022-09-11T07:38:03.654Z,70.83
2022-09-11T07:39:03.630Z,70.83
2022-09-11T07:40:03.651Z,70.83
2022-09-11T07:41:03.597Z,70.72
2022-09-11T07:42:03.582Z,70.72
2022-09-11T07:43:03.604Z,70.72
2022-09-11T07:44:03.596Z,70.72
2022-09-11T07:45:03.556Z,70.83
2022-09-11T07:46:03.595Z,70.72
2022-09-11T07:47:03.530Z,70.72
2022-09-11T07:48:03.541Z,70.72
2022-09-11T07:49:03.513Z,70.72
2022-09-11T07:50:03.527Z,70.72
2022-09-11T07:51:03.486Z,70.83
2022-09-11T07:52:03.475Z,70.83
2022-09-11T07:53:03.466Z,70.72
2022-09-11T07:54:03.453Z,70.83
2022-09-11T07:55:03.476Z,70.72
2022-09-11T07:56:03.438Z,70.72
2022-09-11T07:57:03.425Z,70.72
2022-09-11T07:58:03.412Z,70.72
2022-09-11T07:59:03.402Z,70.72
2022-09-11T08:00:03.423Z,70.72
2022-09-11T08:01:03.450Z,70.72
2022-09-11T08:02:03.411Z,70.72
2022-09-11T08:03:03.359Z,70.72
2022-09-11T08:04:03.367Z,70.72
2022-09-11T08:05:03.337Z,70.72
2022-09-11T08:06:03.356Z,70.72
2022-09-11T08:07:03.316Z,70.72
2022-09-11T08:08:03.302Z,70.72
2022-09-11T08:09:03.293Z,70.72
2022-09-11T08:10:26.247Z,70.72
2022-09-11T08:11:04.300Z,70.83
2022-09-11T08:12:03.288Z,70.72
2022-09-11T08:13:04.451Z,70.72
2022-09-11T08:14:03.237Z,70.83
2022-09-11T08:15:03.229Z,70.83
2022-09-11T08:16:03.216Z,70.72
2022-09-11T08:17:03.237Z,70.72
2022-09-11T08:18:03.194Z,70.72
2022-09-11T08:19:03.185Z,70.72
2022-09-11T08:20:03.203Z,70.72
2022-09-11T08:21:03.164Z,70.72
2022-09-11T08:22:03.185Z,70.72
2022-09-11T08:23:03.143Z,70.72
2022-09-11T08:24:03.129Z,70.72
2022-09-11T08:25:03.120Z,70.72
2022-09-11T08:26:03.107Z,70.72
2022-09-11T08:27:03.148Z,70.72
2022-09-11T08:28:03.085Z,70.72
2022-09-11T08:29:03.084Z,70.72
2022-09-11T08:30:03.066Z,70.72
2022-09-11T08:31:03.122Z,70.72
2022-09-11T08:32:03.043Z,70.72
2022-09-11T08:33:03.066Z,70.72
2022-09-11T08:34:03.023Z,70.72
2022-09-11T08:35:03.011Z,70.72
2022-09-11T08:36:03.024Z,70.72
2022-09-11T08:37:02.989Z,70.72
2022-09-11T08:38:03.009Z,70.72
2022-09-11T08:39:02.967Z,70.72
2022-09-11T08:40:03.012Z,70.72
2022-09-11T08:41:02.946Z,70.72
2022-09-11T08:42:02.936Z,70.72
2022-09-11T08:43:02.957Z,70.72
2022-09-11T08:44:02.912Z,70.72
2022-09-11T08:45:02.931Z,70.72
2022-09-11T08:46:02.946Z,70.72
2022-09-11T08:47:02.880Z,70.72
2022-09-11T08:48:02.872Z,70.72
2022-09-11T08:49:02.867Z,70.72
2022-09-11T08:50:02.879Z,70.72
2022-09-11T08:51:02.842Z,70.72
2022-09-11T08:52:02.848Z,70.72
2022-09-11T08:53:02.822Z,70.72
2022-09-11T08:54:02.805Z,70.72
2022-09-11T08:55:02.828Z,70.72
2022-09-11T08:56:02.783Z,70.72
2022-09-11T08:57:02.774Z,70.72
2022-09-11T08:58:02.762Z,70.72
2022-09-11T08:59:02.755Z,70.72
2022-09-11T09:00:02.771Z,70.72
2022-09-11T09:01:02.844Z,70.72
2022-09-11T09:02:02.797Z,70.72
2022-09-11T09:03:02.711Z,70.72
2022-09-11T09:04:02.696Z,70.72
2022-09-11T09:05:02.689Z,70.72
2022-09-11T09:06:02.675Z,70.72
2022-09-11T09:07:02.700Z,70.72
2022-09-11T09:08:02.677Z,70.72
2022-09-11T09:09:02.643Z,70.72
2022-09-11T09:10:02.632Z,70.72
2022-09-11T09:11:02.621Z,70.72
2022-09-11T09:12:02.662Z,70.72
2022-09-11T09:13:02.603Z,70.72
2022-09-11T09:14:02.591Z,70.72
2022-09-11T09:15:02.581Z,70.72
2022-09-11T09:16:02.693Z,70.72
2022-09-11T09:17:02.558Z,70.72
2022-09-11T09:18:02.579Z,70.72
2022-09-11T09:19:02.536Z,70.72
2022-09-11T09:20:02.528Z,70.72
2022-09-11T09:21:02.516Z,70.72
2022-09-11T09:22:02.502Z,70.72
2022-09-11T09:23:02.531Z,70.72
2022-09-11T09:24:02.539Z,70.72
2022-09-11T09:25:02.470Z,70.72
2022-09-11T09:26:02.461Z,70.72
2022-09-11T09:27:02.451Z,70.72
2022-09-11T09:28:02.437Z,70.72
2022-09-11T09:29:02.462Z,70.72
2022-09-11T09:30:02.416Z,70.62
2022-09-11T09:31:02.473Z,70.62
2022-09-11T09:32:02.394Z,70.62
2022-09-11T09:33:02.385Z,70.72
2022-09-11T09:34:02.402Z,70.62
2022-09-11T09:35:02.365Z,70.62
2022-09-11T09:36:02.349Z,70.62
2022-09-11T09:37:02.343Z,70.62
2022-09-11T09:38:02.329Z,70.62
2022-09-11T09:39:02.353Z,70.72
2022-09-11T09:40:02.429Z,70.72
2022-09-11T09:41:02.302Z,70.62
2022-09-11T09:42:02.288Z,70.62
2022-09-11T09:43:02.279Z,70.72
2022-09-11T09:44:02.293Z,70.62
2022-09-11T09:45:02.254Z,70.62
2022-09-11T09:46:02.329Z,70.62
2022-09-11T09:47:02.234Z,70.62
2022-09-11T09:48:02.221Z,70.62
2022-09-11T09:49:02.380Z,70.62
2022-09-11T09:50:02.247Z,70.62
2022-09-11T09:51:02.191Z,70.62
2022-09-11T09:52:04.379Z,70.62
2022-09-11T09:53:02.170Z,70.62
2022-09-11T09:54:02.155Z,70.62
2022-09-11T09:55:02.182Z,70.62
2022-09-11T09:56:02.159Z,70.62
2022-09-11T09:57:02.124Z,70.62
2022-09-11T09:58:02.115Z,70.62
2022-09-11T09:59:02.104Z,70.62
2022-09-11T10:00:02.331Z,70.62
2022-09-11T10:01:02.191Z,70.62
2022-09-11T10:02:02.206Z,70.62
2022-09-11T10:03:02.063Z,70.62
2022-09-11T10:04:02.052Z,70.62
2022-09-11T10:05:02.079Z,70.62
2022-09-11T10:06:02.027Z,70.62
2022-09-11T10:07:02.021Z,70.62
2022-09-11T10:08:02.004Z,70.62
2022-09-11T10:09:03.530Z,70.62
2022-09-11T10:10:02.016Z,70.62
2022-09-11T10:11:01.973Z,70.62
2022-09-11T10:12:01.985Z,70.62
2022-09-11T10:13:18.734Z,70.62
2022-09-11T10:14:02.941Z,70.62
2022-09-11T10:15:01.961Z,70.53
2022-09-11T10:16:02.125Z,70.62
2022-09-11T10:17:01.908Z,70.53
2022-09-11T10:18:01.898Z,70.53
2022-09-11T10:19:01.887Z,70.53
2022-09-11T10:20:01.883Z,70.53
2022-09-11T10:21:04.143Z,70.53
2022-09-11T10:22:01.855Z,70.62
2022-09-11T10:23:01.843Z,70.53
2022-09-11T10:24:01.832Z,70.53
2022-09-11T10:25:01.822Z,70.53
2022-09-11T10:26:01.813Z,70.53
2022-09-11T10:27:01.831Z,70.53
2022-09-11T10:28:01.812Z,70.53
2022-09-11T10:29:01.778Z,70.53
2022-09-11T10:30:01.771Z,70.53
2022-09-11T10:31:01.937Z,70.53
2022-09-11T10:32:01.783Z,70.53
2022-09-11T10:33:03.711Z,70.53
2022-09-11T10:34:01.725Z,70.53
2022-09-11T10:35:01.713Z,70.53
2022-09-11T10:36:01.702Z,70.53
2022-09-11T10:37:01.723Z,70.53
2022-09-11T10:38:01.684Z,70.53
2022-09-11T10:39:01.671Z,70.53
2022-09-11T10:40:01.731Z,70.42
2022-09-11T10:41:01.647Z,70.42
2022-09-11T10:42:01.673Z,70.42
2022-09-11T10:43:01.626Z,70.42
2022-09-11T10:44:01.655Z,70.42
2022-09-11T10:45:01.605Z,70.42
2022-09-11T10:46:01.643Z,70.42
2022-09-11T10:47:01.614Z,70.42
2022-09-11T10:48:01.607Z,70.42
2022-09-11T10:49:01.562Z,70.42
2022-09-11T10:50:01.557Z,70.42
2022-09-11T10:51:01.543Z,70.42
2022-09-11T10:52:01.535Z,70.42
2022-09-11T10:53:01.556Z,70.42
2022-09-11T10:54:01.511Z,70.42
2022-09-11T10:55:01.499Z,70.42
2022-09-11T10:56:01.487Z,70.42
2022-09-11T10:57:01.476Z,70.42
2022-09-11T10:58:01.498Z,70.42
2022-09-11T10:59:01.487Z,70.42
2022-09-11T11:00:01.487Z,70.32
2022-09-11T11:01:01.433Z,70.42
2022-09-11T11:02:01.444Z,70.42
2022-09-11T11:03:01.410Z,70.42
2022-09-11T11:04:01.430Z,70.42
2022-09-11T11:05:01.391Z,70.42
2022-09-11T11:06:01.387Z,70.42
2022-09-11T11:07:01.367Z,70.42
2022-09-11T11:08:01.360Z,70.42
2022-09-11T11:09:01.412Z,70.42
2022-09-11T11:10:01.337Z,70.42
2022-09-11T11:11:01.324Z,70.42
2022-09-11T11:12:01.316Z,70.32
2022-09-11T11:13:01.301Z,70.32
2022-09-11T11:14:01.294Z,70.42
2022-09-11T11:15:01.314Z,70.42
2022-09-11T11:16:01.333Z,70.32
2022-09-11T11:17:01.258Z,70.32
2022-09-11T11:18:01.253Z,70.32
2022-09-11T11:19:01.238Z,70.42
2022-09-11T11:20:01.287Z,70.32
2022-09-11T11:21:01.216Z,70.32
2022-09-11T11:22:01.208Z,70.32
2022-09-11T11:23:01.203Z,70.32
2022-09-11T11:24:01.189Z,70.32
2022-09-11T11:25:01.172Z,70.32
2022-09-11T11:26:01.199Z,70.32
2022-09-11T11:27:01.181Z,70.32
2022-09-11T11:28:01.142Z,70.32
2022-09-11T11:29:01.129Z,70.32
2022-09-11T11:30:01.133Z,70.32
2022-09-11T11:31:01.171Z,70.32
2022-09-11T11:32:01.153Z,70.32
2022-09-11T11:33:01.088Z,70.32
2022-09-11T11:34:01.133Z,70.32
2022-09-11T11:35:01.065Z,70.32
2022-09-11T11:36:01.057Z,70.23
2022-09-11T11:37:01.045Z,70.32
2022-09-11T11:38:01.033Z,70.32
2022-09-11T11:39:01.091Z,70.32
2022-09-11T11:40:01.071Z,70.32
2022-09-11T11:41:01.000Z,70.32
2022-09-11T11:42:00.992Z,70.32
2022-09-11T11:43:00.983Z,70.32
2022-09-11T11:44:00.967Z,70.32
2022-09-11T11:45:00.987Z,70.32
2022-09-11T11:46:00.994Z,70.32
2022-09-11T11:47:00.935Z,70.23
2022-09-11T11:48:00.951Z,70.23
2022-09-11T11:49:00.912Z,70.23
2022-09-11T11:50:00.935Z,70.32
2022-09-11T11:51:00.893Z,70.23
2022-09-11T11:52:00.892Z,70.23
2022-09-11T11:53:00.873Z,70.32
2022-09-11T11:54:00.864Z,70.32
2022-09-11T11:55:00.849Z,70.32
2022-09-11T11:56:00.872Z,70.23
2022-09-11T11:57:00.830Z,70.32
2022-09-11T11:58:00.817Z,70.23
2022-09-11T11:59:00.806Z,70.23
2022-09-11T12:00:00.797Z,70.23
2022-09-11T12:01:00.818Z,70.23
2022-09-11T12:02:00.837Z,70.23
2022-09-11T12:03:00.762Z,70.23
2022-09-11T12:04:00.777Z,70.23
2022-09-11T12:05:00.740Z,70.23
2022-09-11T12:06:00.786Z,70.12
2022-09-11T12:07:00.720Z,70.23
2022-09-11T12:08:00.710Z,70.12
2022-09-11T12:09:00.698Z,70.12
2022-09-11T12:10:00.688Z,70.12
2022-09-11T12:11:00.676Z,70.12
2022-09-11T12:12:00.714Z,70.12
2022-09-11T12:13:00.657Z,70.12
2022-09-11T12:14:00.675Z,70.12
2022-09-11T12:15:00.632Z,70.12
2022-09-11T12:16:00.654Z,70.12
2022-09-11T12:17:00.611Z,70.12
2022-09-11T12:18:00.600Z,70.12
2022-09-11T12:19:00.621Z,70.03
2022-09-11T12:20:00.607Z,70.12
2022-09-11T12:21:00.567Z,70.12
2022-09-11T12:22:00.559Z,70.12
2022-09-11T12:23:00.548Z,70.12
2022-09-11T12:24:00.568Z,70.12
2022-09-11T12:25:00.554Z,70.12
2022-09-11T12:26:00.523Z,70.12
2022-09-11T12:27:00.504Z,70.03
2022-09-11T12:28:00.494Z,70.12
2022-09-11T12:29:00.482Z,70.12
2022-09-11T12:30:00.524Z,70.12
2022-09-11T12:31:00.511Z,70.12
2022-09-11T12:32:00.452Z,70.03
2022-09-11T12:33:00.440Z,70.12
2022-09-11T12:34:00.431Z,70.03
2022-09-11T12:35:00.418Z,70.03
2022-09-11T12:36:00.464Z,70.03
2022-09-11T12:37:00.456Z,70.03
2022-09-11T12:38:00.390Z,70.03
2022-09-11T12:39:00.378Z,70.03
2022-09-11T12:40:00.419Z,70.12
2022-09-11T12:41:00.353Z,70.12
2022-09-11T12:42:00.395Z,70.12
2022-09-11T12:43:00.332Z,70.03
2022-09-11T12:44:00.323Z,70.03
2022-09-11T12:45:00.309Z,70.12
2022-09-11T12:46:00.354Z,70.12
2022-09-11T12:47:00.358Z,70.03
2022-09-11T12:48:00.312Z,70.03
2022-09-11T12:49:21.179Z,70.03
2022-09-11T12:50:01.255Z,70.03
2022-09-11T12:51:00.248Z,70.03
2022-09-11T12:52:00.259Z,70.03